Time;durP1;ratioP1;P1;durP2;ratioP2;P2;SDS_P1;SDS_P2;PMS_P1;PMS_P2;Temp;Humidity;BMP_temperature;BMP_pressure;BME280_temperature;BME280_humidity;BME280_pressure;Samples;Min_cycle;Max_cycle;Signal;HPM_P1;HPM_P2
2021/04/07 00:01:12;;;;;;;1.80;1.70;;;;;;;1.48;81.71;100016.13;636245;225;24770;-76
2021/04/07 00:03:40;;;;;;;2.40;1.70;;;;;;;1.48;82.21;100020.43;628367;226;24845;-76
2021/04/07 00:06:08;;;;;;;4.20;2.47;;;;;;;1.49;81.79;100017.77;626139;227;24845;-75
2021/04/07 00:08:36;;;;;;;3.60;2.20;;;;;;;1.48;81.94;100015.31;626597;225;24811;-75
2021/04/07 00:11:03;;;;;;;2.37;1.80;;;;;;;1.53;82.52;100025.27;622573;225;24912;-76
2021/04/07 00:13:31;;;;;;;4.20;1.90;;;;;;;1.67;82.21;100023.52;618361;229;32703;-76
2021/04/07 00:15:59;;;;;;;1.80;1.70;;;;;;;1.59;82.50;100027.02;622595;228;23694;-76
2021/04/07 00:18:27;;;;;;;7.27;2.10;;;;;;;1.47;81.94;100021.35;626598;225;26996;-75
2021/04/07 00:20:55;;;;;;;5.83;2.17;;;;;;;1.48;82.00;100025.09;626133;227;25081;-75
2021/04/07 00:23:23;;;;;;;3.10;2.10;;;;;;;1.70;81.92;100019.97;623342;226;32862;-76
2021/04/07 00:25:51;;;;;;;2.30;1.93;;;;;;;1.61;81.37;100018.78;626139;229;23694;-76
2021/04/07 00:28:21;;;;;;;2.30;1.73;;;;;;;1.54;81.40;100018.77;636935;220;27148;-76
2021/04/07 00:30:48;;;;;;;2.90;1.80;;;;;;;1.48;81.70;100020.43;638790;225;24872;-75
2021/04/07 00:33:16;;;;;;;3.47;1.90;;;;;;;1.40;81.95;100020.05;626523;228;24795;-76
2021/04/07 00:35:44;;;;;;;4.40;2.33;;;;;;;1.40;82.19;100019.59;624836;229;24823;-76
2021/04/07 00:38:12;;;;;;;3.23;2.13;;;;;;;1.37;82.24;100022.80;625371;225;24857;-76
2021/04/07 00:40:40;;;;;;;2.97;1.80;;;;;;;1.47;82.08;100028.58;623427;226;24922;-76
2021/04/07 00:43:07;;;;;;;4.80;2.10;;;;;;;1.45;81.80;100032.98;635747;225;24963;-76
2021/04/07 00:45:35;;;;;;;2.47;2.17;;;;;;;1.30;82.44;100040.30;637059;225;24860;-75
2021/04/07 00:48:03;;;;;;;4.78;2.30;;;;;;;1.36;82.83;100044.22;633204;221;32548;-76
2021/04/07 00:50:31;;;;;;;4.80;2.17;;;;;;;1.29;82.88;100052.73;637023;225;23658;-75
2021/04/07 00:52:59;;;;;;;2.63;1.90;;;;;;;1.02;83.28;100041.08;632710;225;24769;-75
2021/04/07 00:55:27;;;;;;;2.83;2.47;;;;;;;1.16;83.94;100059.03;636767;224;24756;-75
2021/04/07 00:57:55;;;;;;;3.53;2.03;;;;;;;1.13;83.63;100064.34;637923;225;24755;-76
2021/04/07 01:00:23;;;;;;;2.98;1.87;;;;;;;1.15;83.29;100068.09;632904;221;32638;-75
2021/04/07 01:02:53;;;;;;;3.40;2.00;;;;;;;1.25;83.33;100065.80;632556;223;32556;-76
2021/04/07 01:05:21;;;;;;;4.63;2.40;;;;;;;1.18;83.30;100063.60;638182;224;23664;-75
2021/04/07 01:07:49;;;;;;;3.47;1.90;;;;;;;1.27;83.05;100066.52;632908;225;32803;-76
2021/04/07 01:10:16;;;;;;;4.03;2.23;;;;;;;1.23;82.88;100066.34;638788;224;23764;-76
2021/04/07 01:12:44;;;;;;;5.40;2.20;;;;;;;1.24;83.59;100071.83;639407;224;24789;-76
2021/04/07 01:15:13;;;;;;;1.80;1.70;;;;;;;1.31;83.06;100067.55;625118;229;24862;-76
2021/04/07 01:17:40;;;;;;;4.53;1.93;;;;;;;1.15;83.17;100064.25;628235;226;27348;-76
2021/04/07 01:20:09;;;;;;;5.00;2.10;;;;;;;1.29;83.01;100072.41;623080;225;43517;-76
2021/04/07 01:22:37;;;;;;;3.23;2.00;;;;;;;1.18;83.50;100070.00;641573;223;23666;-76
2021/04/07 01:25:07;;;;;;;4.83;1.77;;;;;;;1.26;83.77;100075.13;641011;223;24828;-76
2021/04/07 01:27:35;;;;;;;4.00;1.90;;;;;;;1.47;82.34;100079.83;631838;224;32710;-75
2021/04/07 01:30:04;;;;;;;2.50;2.10;;;;;;;1.41;83.17;100075.08;638283;220;23705;-76
2021/04/07 01:32:32;;;;;;;4.53;2.37;;;;;;;1.57;82.22;100076.27;633280;224;32571;-75
2021/04/07 01:34:59;;;;;;;4.60;2.30;;;;;;;1.36;82.89;100073.68;639332;224;26830;-76
2021/04/07 01:37:27;;;;;;;4.28;2.30;;;;;;;1.43;82.50;100077.09;631563;223;32600;-76
2021/04/07 01:39:55;;;;;;;6.57;2.23;;;;;;;1.18;83.12;100084.09;639527;220;26811;-75
2021/04/07 01:42:23;;;;;;;3.83;2.47;;;;;;;1.10;84.29;100088.00;638560;225;24770;-76
2021/04/07 01:44:51;;;;;;;2.63;2.20;;;;;;;1.10;84.55;100098.23;636914;225;24823;-75
2021/04/07 01:47:19;;;;;;;6.20;1.90;;;;;;;1.03;84.33;100099.52;637519;223;24814;-76
2021/04/07 01:49:47;;;;;;;2.77;2.10;;;;;;;1.07;84.87;100108.20;631184;221;32643;-76
2021/04/07 01:52:14;;;;;;;5.33;2.00;;;;;;;1.06;84.46;100110.86;637789;223;23790;-76
2021/04/07 01:54:42;;;;;;;3.62;2.22;;;;;;;1.19;83.90;100097.72;630897;225;32662;-76
2021/04/07 01:57:10;;;;;;;2.47;2.00;;;;;;;1.01;83.89;100106.01;636960;225;23645;-76
2021/04/07 01:59:38;;;;;;;6.00;2.27;;;;;;;1.03;84.15;100109.76;636383;222;24780;-77
2021/04/07 02:02:06;;;;;;;4.90;2.20;;;;;;;1.06;84.13;100105.73;631881;224;32544;-75
2021/04/07 02:04:34;;;;;;;4.10;2.00;;;;;;;1.07;84.17;100106.92;637525;225;23667;-75
2021/04/07 02:07:02;;;;;;;2.37;1.90;;;;;;;1.03;83.79;100111.86;636153;223;24761;-76
2021/04/07 02:09:29;;;;;;;3.20;2.10;;;;;;;1.04;84.19;100119.91;635153;221;24842;-75
2021/04/07 02:11:57;;;;;;;4.20;2.50;;;;;;;1.04;83.68;100117.80;630746;225;32605;-76
2021/04/07 02:14:25;;;;;;;2.33;1.80;;;;;;;1.04;83.68;100121.19;635981;225;23704;-75
2021/04/07 02:16:54;;;;;;;2.47;1.67;;;;;;;1.07;83.95;100122.29;637352;225;24774;-76
2021/04/07 02:19:22;;;;;;;2.63;1.70;;;;;;;1.02;83.43;100120.91;637287;221;24782;-76
2021/04/07 02:21:51;;;;;;;7.03;2.53;;;;;;;1.11;83.61;100125.49;639053;225;24873;-75
2021/04/07 02:24:19;;;;;;;8.17;2.20;;;;;;;1.12;83.96;100127.14;637594;225;24760;-76
2021/04/07 02:26:46;;;;;;;4.03;2.10;;;;;;;1.08;83.42;100130.34;639189;224;24989;-75
2021/04/07 02:29:14;;;;;;;2.40;1.70;;;;;;;1.13;82.94;100133.48;636061;221;24777;-76
2021/04/07 02:31:42;;;;;;;4.78;2.37;;;;;;;1.13;83.93;100127.08;634294;224;32553;-76
2021/04/07 02:34:11;;;;;;;3.30;2.27;;;;;;;1.17;83.40;100131.56;637543;224;23661;-76
2021/04/07 02:36:38;;;;;;;4.67;1.93;;;;;;;1.17;82.88;100136.23;638550;224;24768;-76
2021/04/07 02:39:06;;;;;;;3.62;1.92;;;;;;;1.28;83.08;100141.20;632854;221;32679;-76
2021/04/07 02:41:34;;;;;;;3.60;2.20;;;;;;;1.33;82.45;100144.31;632211;223;32730;-75
2021/04/07 02:44:02;;;;;;;3.47;2.20;;;;;;;1.25;83.15;100137.52;638757;224;23653;-76
2021/04/07 02:46:30;;;;;;;3.20;1.90;;;;;;;1.31;82.80;100143.13;631641;223;32565;-75
2021/04/07 02:48:58;;;;;;;3.70;2.23;;;;;;;1.15;83.76;100151.31;639075;220;23647;-76
2021/04/07 02:51:26;;;;;;;3.73;1.70;;;;;;;1.13;83.40;100151.86;636282;223;26292;-76
2021/04/07 02:53:54;;;;;;;3.25;2.10;;;;;;;1.24;82.74;100154.62;632997;225;32590;-76
2021/04/07 02:56:22;;;;;;;3.93;1.80;;;;;;;1.32;82.91;100158.03;638388;223;25809;-75
2021/04/07 02:58:50;;;;;;;6.40;2.23;;;;;;;1.25;82.79;100161.84;636678;221;24742;-76
2021/04/07 03:01:18;;;;;;;2.33;1.97;;;;;;;1.25;82.96;100169.07;638601;223;24779;-76
2021/04/07 03:03:45;;;;;;;1.83;1.73;;;;;;;1.27;82.13;100162.58;637479;223;24790;-75
2021/04/07 03:06:13;;;;;;;2.35;1.67;;;;;;;1.33;82.71;100153.28;631678;224;32543;-76
2021/04/07 03:08:41;;;;;;;2.23;2.03;;;;;;;1.27;82.60;100164.71;637227;221;23642;-75
2021/04/07 03:11:09;;;;;;;3.60;1.90;;;;;;;1.18;82.33;100166.50;636065;223;24762;-76
2021/04/07 03:13:37;;;;;;;3.87;1.87;;;;;;;1.27;81.99;100163.86;632555;224;32564;-76
2021/04/07 03:16:05;;;;;;;2.37;1.50;;;;;;;1.27;81.86;100168.55;638605;223;24875;-76
2021/04/07 03:18:33;;;;;;;3.67;1.70;;;;;;;1.21;81.53;100157.81;631449;221;32885;-76
2021/04/07 03:21:01;;;;;;;2.87;1.80;;;;;;;1.17;82.54;100163.58;636516;225;23665;-76
2021/04/07 03:23:29;;;;;;;3.63;1.70;;;;;;;1.12;82.03;100160.43;638558;224;26383;-76
2021/04/07 03:25:56;;;;;;;1.53;1.40;;;;;;;1.11;82.13;100158.33;638679;225;27941;-77
2021/04/07 03:28:25;;;;;;;2.60;1.50;;;;;;;1.17;81.80;100163.58;636880;221;24772;-76
2021/04/07 03:30:52;;;;;;;1.60;1.50;;;;;;;1.08;81.90;100162.34;636803;225;25067;-76
2021/04/07 03:33:20;;;;;;;2.83;1.90;;;;;;;1.17;81.49;100168.23;632048;225;32539;-76
2021/04/07 03:35:48;;;;;;;2.87;1.87;;;;;;;1.06;81.21;100169.75;639005;224;23812;-75
2021/04/07 03:38:16;;;;;;;2.45;1.60;;;;;;;1.02;81.67;100169.56;633431;221;32570;-76
2021/04/07 03:40:44;;;;;;;2.03;1.80;;;;;;;1.02;82.23;100178.52;637858;224;26823;-75
2021/04/07 03:43:12;;;;;;;1.62;1.50;;;;;;;0.96;81.12;100179.67;633505;223;32537;-76
2021/04/07 03:45:42;;;;;;;2.30;1.63;;;;;;;0.94;81.31;100183.23;638655;224;23666;-76
2021/04/07 03:48:11;;;;;;;3.20;1.70;;;;;;;0.89;81.18;100189.44;632525;221;32550;-75
2021/04/07 03:50:39;;;;;;;2.27;1.60;;;;;;;0.82;81.13;100192.41;638055;224;23646;-75
2021/04/07 03:53:07;;;;;;;2.30;1.50;;;;;;;0.83;81.35;100201.73;635868;223;32975;-75
2021/04/07 03:55:35;;;;;;;1.53;1.30;;;;;;;0.76;81.35;100205.55;639743;224;23667;-75
2021/04/07 03:58:03;;;;;;;2.30;1.60;;;;;;;0.84;81.59;100211.06;620876;227;32678;-75
2021/04/07 04:00:31;;;;;;;4.40;2.13;;;;;;;0.84;81.14;100220.02;637812;223;23665;-75
2021/04/07 04:02:59;;;;;;;2.10;1.50;;;;;;;0.82;80.80;100227.78;629186;225;32861;-75
2021/04/07 04:05:27;;;;;;;4.50;1.90;;;;;;;0.77;81.92;100231.52;636734;225;23703;-75
2021/04/07 04:07:55;;;;;;;2.90;1.70;;;;;;;0.86;81.24;100245.92;626812;225;32808;-75
2021/04/07 04:10:24;;;;;;;3.80;2.00;;;;;;;1.01;81.74;100250.67;630925;221;32902;-76
2021/04/07 04:12:52;;;;;;;3.60;2.30;;;;;;;1.06;81.14;100249.95;634606;225;23700;-76
2021/04/07 04:15:21;;;;;;;3.23;1.97;;;;;;;1.04;80.98;100253.06;626019;229;24788;-76
2021/04/07 04:17:49;;;;;;;3.75;1.80;;;;;;;0.97;81.77;100267.09;621516;228;32776;-75
2021/04/07 04:20:17;;;;;;;1.87;1.70;;;;;;;0.94;81.95;100271.55;625092;225;23673;-76
2021/04/07 04:22:45;;;;;;;2.27;1.70;;;;;;;1.02;81.48;100266.86;622252;227;32927;-76
2021/04/07 04:25:13;;;;;;;3.63;1.77;;;;;;;0.93;82.08;100269.45;625484;229;23703;-77
2021/04/07 04:27:41;;;;;;;2.33;1.90;;;;;;;1.04;81.42;100267.59;636168;223;32821;-77
2021/04/07 04:30:10;;;;;;;2.62;2.00;;;;;;;1.07;80.04;100263.58;633102;221;32972;-76
2021/04/07 04:32:38;;;;;;;3.40;1.80;;;;;;;0.97;80.90;100272.66;636119;224;33030;-76
2021/04/07 04:35:07;;;;;;;4.43;1.80;;;;;;;0.85;80.79;100273.72;641511;224;23739;-76
2021/04/07 04:37:35;;;;;;;2.70;1.60;;;;;;;0.91;80.01;100277.67;633868;224;32713;-77
2021/04/07 04:40:03;;;;;;;2.30;1.87;;;;;;;0.76;80.46;100279.31;622334;225;25073;-77
2021/04/07 04:42:31;;;;;;;3.00;1.67;;;;;;;0.81;79.69;100277.78;634685;224;33054;-77
2021/04/07 04:44:59;;;;;;;2.97;1.90;;;;;;;0.69;79.97;100282.27;640048;224;23688;-77
2021/04/07 04:47:27;;;;;;;2.40;1.37;;;;;;;0.79;79.59;100279.59;634865;224;32680;-76
2021/04/07 04:49:54;;;;;;;4.30;2.40;;;;;;;0.73;79.97;100283.33;625286;224;23707;-77
2021/04/07 04:52:22;;;;;;;4.12;1.60;;;;;;;0.82;79.55;100302.47;618931;229;32733;-78
2021/04/07 04:54:50;;;;;;;1.93;1.50;;;;;;;0.65;79.93;100302.53;626092;228;23725;-77
2021/04/07 04:57:18;;;;;;;4.72;1.47;;;;;;;0.76;79.89;100307.92;620688;227;32766;-78
2021/04/07 04:59:46;;;;;;;3.65;1.47;;;;;;;0.78;79.54;100306.11;630301;224;32826;-76
2021/04/07 05:02:14;;;;;;;2.00;1.80;;;;;;;0.67;79.82;100313.52;636629;224;23754;-76
2021/04/07 05:04:42;;;;;;;2.83;2.10;;;;;;;0.83;79.80;100320.30;630460;224;32640;-77
2021/04/07 05:07:10;;;;;;;2.50;1.30;;;;;;;0.91;78.20;100323.75;632973;224;32577;-76
2021/04/07 05:09:38;;;;;;;9.67;1.97;;;;;;;0.75;79.44;100331.41;637178;221;23674;-77
2021/04/07 05:12:07;;;;;;;2.58;1.70;;;;;;;0.88;79.02;100331.14;633282;223;32604;-76
2021/04/07 05:14:34;;;;;;;3.02;1.70;;;;;;;1.02;78.57;100335.99;632764;223;32631;-77
2021/04/07 05:17:02;;;;;;;2.90;1.63;;;;;;;0.99;78.00;100329.76;638745;224;24105;-76
2021/04/07 05:19:30;;;;;;;4.30;1.47;;;;;;;1.00;78.13;100324.55;632631;221;32647;-76
2021/04/07 05:21:58;;;;;;;2.97;1.40;;;;;;;0.85;78.15;100318.97;638407;223;26850;-77
2021/04/07 05:24:26;;;;;;;2.85;1.85;;;;;;;0.89;78.22;100334.53;631717;223;32540;-77
2021/04/07 05:26:54;;;;;;;4.43;1.87;;;;;;;0.81;78.53;100337.93;637811;225;23694;-76
2021/04/07 05:29:22;;;;;;;4.42;2.00;;;;;;;0.93;77.89;100334.73;631904;221;32548;-76
2021/04/07 05:31:50;;;;;;;2.60;1.63;;;;;;;0.81;78.70;100336.66;637644;224;23667;-76
2021/04/07 05:34:17;;;;;;;3.85;1.30;;;;;;;0.93;78.32;100339.86;632388;224;32641;-76
2021/04/07 05:36:46;;;;;;;3.10;1.60;;;;;;;0.93;78.06;100351.38;637586;224;23673;-76
2021/04/07 05:39:13;;;;;;;3.37;1.70;;;;;;;0.89;78.07;100341.76;630918;222;32827;-76
2021/04/07 05:41:42;;;;;;;4.23;1.77;;;;;;;0.92;78.74;100355.30;637507;225;23731;-76
2021/04/07 05:44:10;;;;;;;2.83;1.32;;;;;;;0.83;78.47;100360.43;631280;225;32566;-77
2021/04/07 05:46:37;;;;;;;3.20;1.70;;;;;;;0.94;78.80;100362.44;637837;224;23696;-76
2021/04/07 05:49:05;;;;;;;5.12;1.80;;;;;;;0.95;78.40;100370.49;632723;220;32605;-76
2021/04/07 05:51:33;;;;;;;2.55;1.30;;;;;;;1.02;77.98;100368.83;632020;225;32640;-76
2021/04/07 05:54:01;;;;;;;2.60;1.37;;;;;;;1.04;78.21;100374.69;632902;225;26809;-76
2021/04/07 05:56:29;;;;;;;3.00;1.60;;;;;;;1.11;77.75;100376.00;631967;225;32517;-76
2021/04/07 05:58:57;;;;;;;2.60;1.83;;;;;;;1.20;77.14;100369.58;636618;221;23645;-76
2021/04/07 06:01:25;;;;;;;2.70;1.40;;;;;;;1.24;76.95;100377.92;633222;224;32547;-76
2021/04/07 06:03:53;;;;;;;3.07;2.17;;;;;;;1.45;77.79;100375.05;637050;225;23661;-75
2021/04/07 06:06:21;;;;;;;6.03;2.80;;;;;;;1.19;78.21;100390.98;639548;223;25877;-77
2021/04/07 06:08:49;;;;;;;6.57;2.00;;;;;;;1.04;79.05;100399.02;638978;221;24797;-76
2021/04/07 06:11:18;;;;;;;3.20;2.20;;;;;;;1.15;79.59;100406.97;632093;223;32836;-76
2021/04/07 06:13:46;;;;;;;5.50;2.30;;;;;;;1.44;78.22;100408.44;633104;224;32552;-78
2021/04/07 06:16:14;;;;;;;3.10;2.30;;;;;;;1.34;78.56;100417.52;637253;224;23638;-76
2021/04/07 06:18:42;;;;;;;4.53;2.20;;;;;;;1.39;77.69;100421.47;632028;221;43034;-76
2021/04/07 06:21:09;;;;;;;5.58;2.33;;;;;;;1.44;78.61;100423.81;631219;224;43328;-76
2021/04/07 06:23:38;;;;;;;5.57;2.80;;;;;;;1.68;78.15;100429.34;637105;224;24884;-76
2021/04/07 06:26:05;;;;;;;2.63;2.33;;;;;;;1.73;76.33;100417.94;638466;224;24748;-76
2021/04/07 06:28:33;;;;;;;4.35;2.62;;;;;;;1.78;76.08;100419.78;633176;220;32536;-77
2021/04/07 06:31:01;;;;;;;6.17;2.43;;;;;;;1.65;76.26;100421.36;632881;225;26810;-76
2021/04/07 06:33:29;;;;;;;4.67;2.37;;;;;;;1.82;76.42;100417.05;637303;224;24769;-76
2021/04/07 06:35:57;;;;;;;3.87;2.60;;;;;;;2.08;75.97;100427.97;636344;224;24760;-76
2021/04/07 06:38:25;;;;;;;3.30;2.30;;;;;;;1.98;75.74;100412.75;637817;222;24815;-76
2021/04/07 06:40:53;;;;;;;5.13;2.03;;;;;;;2.15;75.39;100421.59;638691;223;25016;-76
2021/04/07 06:43:21;;;;;;;3.20;2.30;;;;;;;2.32;74.51;100413.77;637215;223;24787;-76
2021/04/07 06:45:49;;;;;;;3.37;2.27;;;;;;;2.56;74.79;100412.81;636473;224;24794;-76
2021/04/07 06:48:17;;;;;;;2.30;2.07;;;;;;;2.37;74.25;100414.77;636621;221;24769;-76
2021/04/07 06:50:45;;;;;;;2.23;2.03;;;;;;;2.76;74.09;100414.66;639341;224;24813;-76
2021/04/07 06:53:12;;;;;;;4.20;2.13;;;;;;;2.91;73.83;100415.03;638445;223;24800;-76
2021/04/07 06:55:40;;;;;;;5.10;2.35;;;;;;;3.49;73.37;100417.46;631791;225;32554;-76
2021/04/07 06:58:08;;;;;;;5.33;2.30;;;;;;;2.98;72.64;100413.31;637297;224;26805;-76
2021/04/07 07:00:36;;;;;;;4.00;2.07;;;;;;;3.12;73.58;100422.76;638151;222;24838;-76
2021/04/07 07:03:04;;;;;;;7.33;2.47;;;;;;;3.58;72.68;100415.62;637448;225;24783;-76
2021/04/07 07:05:32;;;;;;;6.00;2.70;;;;;;;3.68;72.21;100420.20;638950;224;24795;-76
2021/04/07 07:08:01;;;;;;;4.30;2.50;;;;;;;4.48;70.19;100427.00;632205;224;32524;-76
2021/04/07 07:10:35;;;;;;;3.73;2.40;;;;;;;3.59;71.75;100425.44;637040;221;23644;-76
2021/04/07 07:13:03;;;;;;;7.17;2.40;;;;;;;3.00;72.37;100424.77;637616;225;24765;-76
2021/04/07 07:15:31;;;;;;;5.10;2.30;;;;;;;3.46;72.26;100430.52;637393;224;24754;-76
2021/04/07 07:17:59;;;;;;;3.53;2.50;;;;;;;3.78;71.46;100427.67;634446;224;24812;-76
2021/04/07 07:20:28;;;;;;;3.98;2.30;;;;;;;3.30;72.65;100434.13;633989;220;32577;-76
2021/04/07 07:22:56;;;;;;;5.10;2.90;;;;;;;3.69;72.07;100435.53;639923;223;23699;-76
2021/04/07 07:25:25;;;;;;;3.43;2.63;;;;;;;3.24;72.71;100443.04;637927;224;24800;-76
2021/04/07 07:27:58;;;;;;;4.73;2.23;;;;;;;3.19;72.51;100452.29;638250;224;24785;-76
2021/04/07 07:30:29;;;;;;;3.27;2.27;;;;;;;2.90;73.27;100456.59;638397;221;24759;-76
2021/04/07 07:32:57;;;;;;;4.60;2.20;;;;;;;2.43;72.67;100452.94;636232;225;25930;-76
2021/04/07 07:35:25;;;;;;;5.30;2.40;;;;;;;2.66;73.28;100456.73;631393;223;32554;-76
2021/04/07 07:37:54;;;;;;;8.30;2.10;;;;;;;2.35;72.42;100449.97;637873;225;25830;-76
2021/04/07 07:40:25;;;;;;;3.80;2.00;;;;;;;2.54;72.84;100467.27;637374;221;24779;-76
2021/04/07 07:42:52;;;;;;;5.33;2.70;;;;;;;2.67;72.86;100473.78;631709;225;32562;-76
2021/04/07 07:45:26;;;;;;;3.37;2.50;;;;;;;2.40;71.21;100480.52;638791;225;24769;-76
2021/04/07 07:48:01;;;;;;;6.33;2.13;;;;;;;2.59;72.57;100469.56;638414;223;24987;-76
2021/04/07 07:50:36;;;;;;;4.80;2.20;;;;;;;2.49;71.66;100486.40;637074;221;24762;-75
2021/04/07 07:53:13;;;;;;;3.45;1.92;;;;;;;2.45;72.12;100479.34;627757;225;32556;-76
2021/04/07 07:55:41;;;;;;;4.73;1.90;;;;;;;2.46;71.80;100469.89;638080;223;23657;-76
2021/04/07 07:58:09;;;;;;;6.97;2.20;;;;;;;2.62;71.12;100474.52;632651;223;32546;-76
2021/04/07 08:00:37;;;;;;;4.00;2.30;;;;;;;2.97;71.80;100473.31;637765;223;26883;-76
2021/04/07 08:03:09;;;;;;;5.70;2.60;;;;;;;2.57;71.63;100472.69;637743;225;25074;-76
2021/04/07 08:05:37;;;;;;;3.13;1.83;;;;;;;2.70;70.94;100477.48;624457;228;24815;-76
2021/04/07 08:08:06;;;;;;;2.53;2.33;;;;;;;2.54;71.24;100469.02;640055;224;24782;-76
2021/04/07 08:10:36;;;;;;;4.13;2.40;;;;;;;2.70;71.11;100476.66;633042;225;26081;-76
2021/04/07 08:13:02;;;;;;;3.42;2.05;;;;;;;2.80;71.06;100472.16;621309;225;32920;-76
2021/04/07 08:15:30;;;;;;;2.67;2.47;;;;;;;2.72;71.02;100493.63;638400;224;23710;-76
2021/04/07 08:17:58;;;;;;;3.73;2.40;;;;;;;3.05;71.38;100477.16;640338;224;24853;-76
2021/04/07 08:20:27;;;;;;;2.57;2.17;;;;;;;3.56;70.59;100481.75;638854;221;24827;-76
2021/04/07 08:22:55;;;;;;;4.67;2.77;;;;;;;3.54;71.62;100493.05;639890;224;24892;-76
2021/04/07 08:25:22;;;;;;;4.23;2.00;;;;;;;3.58;68.95;100488.91;624697;229;28080;-76
2021/04/07 08:27:51;;;;;;;3.13;2.20;;;;;;;3.53;69.52;100485.80;638799;223;24823;-76
2021/04/07 08:30:20;;;;;;;5.73;2.20;;;;;;;3.58;70.01;100485.05;641990;220;25054;-76
2021/04/07 08:32:48;;;;;;;5.30;2.10;;;;;;;3.22;69.30;100492.39;641775;223;24827;-76
2021/04/07 08:35:15;;;;;;;3.60;2.40;;;;;;;3.83;69.46;100486.94;625378;229;24782;-76
2021/04/07 08:37:43;;;;;;;4.67;1.93;;;;;;;3.74;68.36;100476.38;633963;225;24862;-76
2021/04/07 08:40:12;;;;;;;8.43;3.20;;;;;;;3.17;69.28;100483.68;626885;225;26985;-76
2021/04/07 08:42:40;;;;;;;4.67;2.87;;;;;;;3.15;69.85;100484.23;626387;228;24803;-76
2021/04/07 08:45:09;;;;;;;3.20;2.50;;;;;;;3.25;70.26;100486.64;642580;223;24792;-76
2021/04/07 08:47:44;;;;;;;9.50;3.03;;;;;;;3.53;70.05;100485.80;641217;223;27978;-76
2021/04/07 08:50:11;;;;;;;5.13;2.70;;;;;;;3.29;69.50;100480.84;637012;221;24768;-76
2021/04/07 08:52:43;;;;;;;5.22;2.20;;;;;;;3.23;70.10;100480.73;631093;225;33031;-76
2021/04/07 08:55:16;;;;;;;5.33;2.60;;;;;;;3.55;69.87;100479.27;631395;224;32671;-77
2021/04/07 08:57:44;;;;;;;9.70;2.80;;;;;;;3.33;69.00;100478.45;633261;225;32562;-76
2021/04/07 09:00:13;;;;;;;4.62;2.08;;;;;;;3.36;69.26;100482.11;631854;221;32569;-76
2021/04/07 09:02:47;;;;;;;6.57;2.70;;;;;;;3.32;69.18;100485.80;638999;222;23743;-76
2021/04/07 09:05:16;;;;;;;2.20;2.00;;;;;;;3.30;69.25;100488.92;637287;225;24751;-76
2021/04/07 09:07:46;;;;;;;3.53;2.20;;;;;;;3.48;69.87;100495.97;636473;223;24807;-76
2021/04/07 09:10:14;;;;;;;3.70;2.10;;;;;;;3.22;69.31;100500.92;636544;221;24783;-76
2021/04/07 09:12:43;;;;;;;5.23;2.10;;;;;;;3.10;69.83;100498.28;636053;225;24778;-76
2021/04/07 09:15:15;;;;;;;7.43;1.97;;;;;;;3.13;70.12;100518.66;638152;223;24780;-77
2021/04/07 09:17:46;;;;;;;11.00;2.50;;;;;;;3.03;70.46;100518.36;637333;223;26913;-76
2021/04/07 09:20:26;;;;;;;4.90;1.73;;;;;;;2.90;70.78;100525.12;636389;221;24777;-76
2021/04/07 09:22:54;;;;;;;4.63;2.50;;;;;;;3.08;71.60;100525.78;636392;225;25077;-76
2021/04/07 09:25:32;;;;;;;6.03;2.27;;;;;;;3.04;70.93;100528.17;636550;225;24767;-76
2021/04/07 09:28:06;;;;;;;3.60;2.13;;;;;;;3.13;70.86;100531.50;626007;226;24827;-76
2021/04/07 09:30:49;;;;;;;6.23;2.67;;;;;;;3.04;70.29;100520.47;636062;221;24893;-76
2021/04/07 09:33:17;;;;;;;4.50;2.40;;;;;;;3.23;70.70;100535.16;631846;225;32817;-76
2021/04/07 09:35:52;;;;;;;6.77;2.47;;;;;;;3.32;69.97;100538.48;636679;225;23667;-76
2021/04/07 09:38:20;;;;;;;4.30;2.27;;;;;;;3.39;69.91;100524.37;637827;221;25193;-76
2021/04/07 09:40:48;;;;;;;4.33;2.40;;;;;;;3.47;69.63;100520.03;637701;223;24837;-76
2021/04/07 09:43:21;;;;;;;5.63;2.47;;;;;;;3.73;69.12;100518.45;639311;223;24792;-76
2021/04/07 09:45:50;;;;;;;4.17;2.30;;;;;;;3.53;68.72;100524.36;637799;224;24816;-76
2021/04/07 09:48:18;;;;;;;3.93;2.20;;;;;;;3.49;69.78;100511.30;637966;221;25995;-76
2021/04/07 09:50:46;;;;;;;7.87;2.70;;;;;;;3.65;69.09;100509.91;632961;223;32612;-76
2021/04/07 09:53:26;;;;;;;6.80;3.07;;;;;;;3.72;69.19;100516.81;638088;223;23659;-76
2021/04/07 09:56:00;;;;;;;2.50;1.80;;;;;;;4.22;68.16;100501.23;637052;224;24852;-76
2021/04/07 09:58:28;;;;;;;5.42;2.08;;;;;;;4.15;67.44;100495.66;632745;221;32617;-76
2021/04/07 10:00:56;;;;;;;4.85;2.22;;;;;;;4.22;67.44;100491.76;632941;223;32536;-76
2021/04/07 10:03:24;;;;;;;10.80;2.73;;;;;;;4.26;66.78;100484.23;639623;223;30222;-76
2021/04/07 10:05:52;;;;;;;8.17;2.30;;;;;;;4.41;67.30;100477.27;638628;223;24799;-76
2021/04/07 10:08:23;;;;;;;4.60;2.07;;;;;;;4.17;66.87;100479.66;636214;221;26932;-76
2021/04/07 10:10:48;;;;;;;8.07;2.37;;;;;;;4.29;66.62;100478.88;637032;225;24768;-76
2021/04/07 10:13:16;;;;;;;4.83;1.97;;;;;;;3.98;66.18;100485.16;637148;223;26923;-76
2021/04/07 10:15:44;;;;;;;4.27;2.10;;;;;;;5.03;65.60;100469.70;638203;223;24829;-76
2021/04/07 10:18:12;;;;;;;4.07;2.20;;;;;;;5.83;63.36;100465.86;638490;223;24825;-76
2021/04/07 10:20:40;;;;;;;9.63;2.20;;;;;;;5.56;63.25;100453.61;637074;225;24779;-76
2021/04/07 10:23:08;;;;;;;6.60;2.13;;;;;;;6.23;64.22;100450.13;636056;225;24755;-76
2021/04/07 10:25:36;;;;;;;4.07;1.90;;;;;;;5.15;63.56;100451.30;638882;224;24769;-76
2021/04/07 10:28:04;;;;;;;11.00;2.23;;;;;;;5.03;64.64;100457.64;635778;224;24770;-76
2021/04/07 10:30:41;;;;;;;5.73;1.90;;;;;;;4.66;63.94;100455.89;635974;221;24770;-76
2021/04/07 10:33:09;;;;;;;3.97;1.70;;;;;;;4.72;65.15;100467.06;637164;225;24780;-76
2021/04/07 10:35:39;;;;;;;4.60;1.90;;;;;;;4.77;64.95;100479.17;636424;224;25062;-76
2021/04/07 10:38:05;;;;;;;3.30;1.77;;;;;;;4.46;64.16;100477.78;636937;225;24807;-76
2021/04/07 10:40:33;;;;;;;7.28;1.90;;;;;;;4.31;64.91;100473.63;631289;220;43325;-76
2021/04/07 10:43:10;;;;;;;6.57;2.17;;;;;;;4.02;64.31;100466.02;632291;225;23634;-76
2021/04/07 10:45:38;;;;;;;7.30;2.53;;;;;;;4.03;65.37;100479.24;637599;224;24816;-76
2021/04/07 10:48:07;;;;;;;6.60;2.40;;;;;;;3.73;65.57;100479.88;638296;223;24768;-76
2021/04/07 10:50:35;;;;;;;4.43;1.90;;;;;;;3.92;65.17;100483.41;636538;221;24839;-77
2021/04/07 10:53:03;;;;;;;3.83;1.60;;;;;;;3.81;65.68;100490.53;639286;224;24785;-76
2021/04/07 10:55:31;;;;;;;4.60;2.00;;;;;;;3.96;66.33;100503.72;639599;223;24761;-76
2021/04/07 10:57:58;;;;;;;4.37;1.60;;;;;;;3.96;65.89;100499.04;638111;224;27957;-76
2021/04/07 11:00:27;;;;;;;2.67;1.47;;;;;;;3.93;66.21;100510.32;637748;220;24789;-76
2021/04/07 11:02:56;;;;;;;3.63;1.73;;;;;;;3.95;67.61;100525.23;637399;224;24761;-76
2021/04/07 11:05:24;;;;;;;3.07;1.90;;;;;;;3.27;71.20;100531.05;638152;224;24788;-76
2021/04/07 11:08:01;;;;;;;4.20;1.73;;;;;;;3.31;73.45;100563.00;637419;223;24792;-75
2021/04/07 11:10:30;;;;;;;4.60;2.10;;;;;;;3.45;73.99;100575.41;638057;221;24767;-76
2021/04/07 11:12:57;;;;;;;1.90;1.70;;;;;;;3.03;74.62;100583.87;637950;225;24763;-76
2021/04/07 11:15:25;;;;;;;6.40;2.07;;;;;;;3.66;73.82;100581.45;637662;225;24763;-76
2021/04/07 11:17:53;;;;;;;6.57;1.70;;;;;;;3.53;72.73;100565.50;638055;224;24857;-76
2021/04/07 11:20:21;;;;;;;4.33;2.10;;;;;;;3.75;71.84;100561.63;631011;221;32546;-76
2021/04/07 11:22:49;;;;;;;3.30;1.77;;;;;;;3.66;70.67;100559.59;639317;223;23933;-75
2021/04/07 11:25:17;;;;;;;5.80;2.07;;;;;;;3.74;71.69;100569.80;637645;223;24858;-76
2021/04/07 11:27:45;;;;;;;4.57;1.60;;;;;;;3.65;71.05;100553.62;637755;223;24778;-75
2021/04/07 11:30:14;;;;;;;5.77;1.43;;;;;;;3.74;71.44;100584.41;637564;221;24831;-76
2021/04/07 11:32:47;;;;;;;5.87;1.50;;;;;;;3.48;70.76;100554.64;637795;223;24775;-76
2021/04/07 11:35:16;;;;;;;5.57;1.63;;;;;;;3.61;72.06;100568.06;636761;225;24781;-76
2021/04/07 11:37:42;;;;;;;6.00;1.60;;;;;;;3.31;71.97;100571.53;635632;225;24784;-76
2021/04/07 11:40:20;;;;;;;4.93;2.27;;;;;;;3.20;72.94;100581.14;634898;221;24771;-75